createdAt,value
2018-04-13T00:00:20.838Z,99.90
2018-04-13T00:02:49.436Z,99.90
2018-04-13T00:05:23.685Z,99.90
2018-04-13T00:07:57.528Z,99.90
2018-04-13T00:10:25.969Z,99.90
2018-04-13T00:12:54.383Z,99.90
2018-04-13T00:15:23.658Z,99.90
2018-04-13T00:17:52.153Z,99.90
2018-04-13T00:20:21.378Z,99.90
2018-04-13T00:22:49.950Z,99.90
2018-04-13T00:25:19.157Z,99.90
2018-04-13T00:27:48.462Z,99.90
2018-04-13T00:30:23.988Z,99.90
2018-04-13T00:32:52.849Z,99.90
2018-04-13T00:35:22.010Z,99.90
2018-04-13T00:38:09.367Z,99.90
2018-04-13T00:40:38.733Z,99.90
2018-04-13T00:43:07.467Z,99.90
2018-04-13T00:45:36.410Z,99.90
2018-04-13T00:48:04.813Z,99.90
2018-04-13T00:50:34.105Z,99.90
2018-04-13T00:53:19.594Z,99.90
2018-04-13T00:55:52.154Z,99.90
2018-04-13T00:58:20.565Z,99.90
2018-04-13T01:00:48.985Z,99.90
2018-04-13T01:03:17.436Z,99.90
2018-04-13T01:05:45.903Z,99.90
2018-04-13T01:08:14.502Z,99.90
2018-04-13T01:10:42.946Z,99.90
2018-04-13T01:13:11.415Z,99.90
2018-04-13T01:15:39.837Z,99.90
2018-04-13T01:18:14.270Z,99.90
2018-04-13T01:20:44.298Z,99.90
2018-04-13T01:23:14.073Z,99.90
2018-04-13T01:25:42.667Z,99.90
2018-04-13T01:28:11.176Z,99.90
2018-04-13T01:30:40.486Z,99.90
2018-04-13T01:33:09.730Z,99.90
2018-04-13T01:35:38.173Z,99.90
2018-04-13T01:38:07.447Z,99.90
2018-04-13T01:40:35.971Z,99.90
2018-04-13T01:43:05.976Z,99.90
2018-04-13T01:45:47.920Z,99.90
2018-04-13T01:48:16.356Z,99.90
2018-04-13T01:50:44.951Z,99.90
2018-04-13T01:53:13.574Z,99.90
2018-04-13T01:55:42.129Z,99.90
2018-04-13T01:58:10.640Z,99.90
2018-04-13T02:00:39.145Z,99.90
2018-04-13T02:03:13.186Z,99.90
2018-04-13T02:05:41.825Z,99.90
2018-04-13T02:08:11.165Z,99.90
2018-04-13T02:10:39.766Z,99.90
2018-04-13T02:13:08.200Z,99.90
2018-04-13T02:15:36.835Z,99.90
2018-04-13T02:18:06.358Z,99.90
2018-04-13T02:20:34.894Z,99.90
2018-04-13T02:23:03.301Z,99.90
2018-04-13T02:25:31.726Z,99.90
2018-04-13T02:28:06.459Z,99.90
2018-04-13T02:30:34.879Z,99.90
2018-04-13T02:33:03.325Z,99.90
2018-04-13T02:35:31.909Z,99.90
2018-04-13T02:38:00.304Z,99.90
2018-04-13T02:40:29.427Z,99.90
2018-04-13T02:42:58.610Z,99.90
2018-04-13T02:45:27.785Z,99.90
2018-04-13T02:47:59.538Z,99.90
2018-04-13T02:50:34.278Z,99.90
2018-04-13T02:53:04.059Z,99.90
2018-04-13T02:55:32.458Z,99.90
2018-04-13T02:58:01.070Z,99.90
2018-04-13T03:00:30.313Z,99.90
2018-04-13T03:02:58.766Z,99.90
2018-04-13T03:05:27.950Z,99.90
2018-04-13T03:07:57.922Z,99.90
2018-04-13T03:10:27.277Z,99.90
2018-04-13T03:12:55.751Z,99.90
2018-04-13T03:15:26.857Z,99.90
2018-04-13T03:17:55.310Z,99.90
2018-04-13T03:20:23.772Z,99.90
2018-04-13T03:22:52.205Z,99.90
2018-04-13T03:25:20.730Z,99.90
2018-04-13T03:27:50.080Z,99.90
2018-04-13T03:30:19.180Z,99.90
2018-04-13T03:32:47.645Z,99.90
2018-04-13T03:35:16.105Z,99.90
2018-04-13T03:37:45.407Z,99.90
2018-04-13T03:40:14.642Z,99.90
2018-04-13T03:42:43.833Z,99.90
2018-04-13T03:45:13.068Z,99.90
2018-04-13T03:47:41.518Z,99.90
2018-04-13T03:50:10.131Z,99.90
2018-04-13T03:52:40.129Z,99.90
2018-04-13T03:55:08.758Z,99.90
2018-04-13T03:57:37.349Z,99.90
2018-04-13T04:00:11.323Z,99.90
2018-04-13T04:02:39.941Z,99.90
2018-04-13T04:05:08.548Z,99.90
2018-04-13T04:07:37.891Z,99.90
2018-04-13T04:10:06.489Z,99.90
2018-04-13T04:12:34.977Z,99.90
2018-04-13T04:15:03.621Z,99.90
2018-04-13T04:17:32.229Z,99.90
2018-04-13T04:20:13.332Z,99.90
2018-04-13T04:22:56.185Z,99.90
2018-04-13T04:25:36.641Z,99.90
2018-04-13T04:28:05.072Z,99.90
2018-04-13T04:30:34.284Z,99.90
2018-04-13T04:33:02.701Z,99.90
2018-04-13T04:35:31.280Z,99.90
2018-04-13T04:37:59.899Z,99.90
2018-04-13T04:40:29.292Z,99.90
2018-04-13T04:42:59.406Z,99.90
2018-04-13T04:45:27.916Z,99.90
2018-04-13T04:47:56.337Z,99.90
2018-04-13T04:50:24.758Z,99.90
2018-04-13T04:52:53.397Z,99.90
2018-04-13T04:55:21.967Z,99.90
2018-04-13T04:57:51.316Z,99.90
2018-04-13T05:00:19.754Z,99.90
2018-04-13T05:02:49.124Z,99.90
2018-04-13T05:05:23.759Z,99.90
2018-04-13T05:07:53.250Z,99.90
2018-04-13T05:10:21.775Z,99.90
2018-04-13T05:12:50.931Z,99.90
2018-04-13T05:15:19.315Z,99.90
2018-04-13T05:17:47.796Z,99.90
2018-04-13T05:20:16.996Z,99.90
2018-04-13T05:22:46.239Z,99.90
2018-04-13T05:25:15.398Z,99.90
2018-04-13T05:27:43.958Z,99.90
2018-04-13T05:30:13.281Z,99.90
2018-04-13T05:32:41.682Z,99.90
2018-04-13T05:35:10.304Z,99.90
2018-04-13T05:37:38.739Z,99.90
2018-04-13T05:40:07.185Z,99.90
2018-04-13T05:42:35.607Z,99.70
2018-04-13T05:45:04.226Z,99.60
2018-04-13T05:47:32.615Z,98.20
2018-04-13T05:50:06.407Z,98.30
2018-04-13T05:52:35.309Z,96.90
2018-04-13T05:55:04.517Z,95.90
2018-04-13T05:57:33.083Z,95.90
2018-04-13T06:00:01.506Z,95.00
2018-04-13T06:02:30.683Z,93.80
2018-04-13T06:04:59.201Z,93.80
2018-04-13T06:07:28.441Z,91.90
2018-04-13T06:09:56.923Z,91.90
2018-04-13T06:12:25.683Z,91.00
2018-04-13T06:14:54.101Z,90.90
2018-04-13T06:17:22.707Z,90.70
2018-04-13T06:19:52.043Z,91.00
2018-04-13T06:22:20.652Z,91.00
2018-04-13T06:24:49.827Z,90.30
2018-04-13T06:27:18.301Z,90.30
2018-04-13T06:29:46.859Z,89.20
2018-04-13T06:32:16.103Z,88.70
2018-04-13T06:34:44.535Z,86.00
2018-04-13T06:37:13.916Z,85.30
2018-04-13T06:39:43.128Z,84.30
2018-04-13T06:42:11.619Z,83.90
2018-04-13T06:44:40.057Z,83.00
2018-04-13T06:47:08.592Z,83.40
2018-04-13T06:49:37.011Z,79.80
2018-04-13T06:52:05.446Z,80.20
2018-04-13T06:54:35.529Z,83.80
2018-04-13T06:57:09.204Z,83.70
2018-04-13T07:02:13.903Z,80.20
2018-04-13T07:04:42.497Z,77.20
2018-04-13T07:07:11.148Z,74.60
2018-04-13T07:09:39.565Z,73.90
2018-04-13T07:12:08.059Z,77.10
2018-04-13T07:14:36.574Z,75.70
2018-04-13T07:17:05.210Z,74.30
2018-04-13T07:19:33.779Z,73.30
2018-04-13T07:22:04.003Z,74.40
2018-04-13T07:24:33.356Z,74.70
2018-04-13T07:27:03.348Z,74.70
2018-04-13T07:29:37.365Z,74.40
2018-04-13T07:32:06.724Z,76.20
2018-04-13T07:34:35.521Z,76.10
2018-04-13T07:37:03.645Z,77.10
2018-04-13T07:39:32.207Z,73.20
2018-04-13T07:42:00.609Z,75.00
2018-04-13T07:44:29.043Z,72.40
2018-04-13T07:46:57.519Z,69.40
2018-04-13T07:49:26.076Z,68.60
2018-04-13T07:51:54.447Z,64.70
2018-04-13T07:54:22.864Z,66.70
2018-04-13T07:56:51.261Z,66.60
2018-04-13T07:59:19.847Z,70.20
2018-04-13T08:01:48.905Z,70.60
2018-04-13T08:04:16.776Z,66.30
2018-04-13T08:06:46.011Z,67.30
2018-04-13T08:09:14.477Z,67.50
2018-04-13T08:11:42.865Z,67.60
2018-04-13T08:14:11.455Z,71.40
2018-04-13T08:16:40.643Z,67.00
2018-04-13T08:19:09.151Z,67.00
2018-04-13T08:21:38.304Z,66.80
2018-04-13T08:24:06.804Z,67.00
2018-04-13T08:26:35.218Z,69.10
2018-04-13T08:29:03.831Z,72.80
2018-04-13T08:31:32.392Z,71.70
2018-04-13T08:34:08.476Z,73.30
2018-04-13T08:36:37.060Z,73.50
2018-04-13T08:39:06.311Z,76.50
2018-04-13T08:41:35.699Z,77.50
2018-04-13T08:44:04.272Z,77.40
2018-04-13T08:46:32.890Z,78.90
2018-04-13T08:49:01.386Z,79.50
2018-04-13T08:51:30.192Z,79.60
2018-04-13T08:53:58.626Z,78.70
2018-04-13T08:56:29.316Z,78.90
2018-04-13T08:58:58.484Z,77.80
2018-04-13T09:01:27.839Z,76.40
2018-04-13T09:03:56.327Z,76.60
2018-04-13T09:06:24.779Z,78.30
2018-04-13T09:08:53.169Z,73.30
2018-04-13T09:11:21.645Z,68.50
2018-04-13T09:13:50.352Z,67.00
2018-04-13T09:16:18.794Z,68.60
2018-04-13T09:18:52.690Z,62.90
2018-04-13T09:21:24.459Z,66.00
2018-04-13T09:23:52.934Z,68.70
2018-04-13T09:26:21.364Z,71.20
2018-04-13T09:28:49.900Z,72.60
2018-04-13T09:31:26.248Z,74.60
2018-04-13T09:33:54.815Z,74.50
2018-04-13T09:36:23.390Z,76.90
2018-04-13T09:38:51.814Z,77.20
2018-04-13T09:41:20.309Z,74.70
2018-04-13T09:43:51.265Z,75.80
2018-04-13T09:46:19.679Z,76.30
2018-04-13T09:48:48.135Z,77.70
2018-04-13T09:51:16.741Z,75.80
2018-04-13T09:53:45.210Z,75.10
2018-04-13T09:56:13.648Z,78.30
2018-04-13T09:58:42.204Z,80.20
2018-04-13T10:04:18.535Z,80.50
2018-04-13T10:06:47.725Z,82.30
2018-04-13T10:09:16.340Z,82.10
2018-04-13T10:11:44.953Z,84.10
2018-04-13T10:14:13.550Z,83.70
2018-04-13T10:16:42.185Z,83.90
2018-04-13T10:19:10.654Z,83.20
2018-04-13T10:21:39.126Z,81.70
2018-04-13T10:24:07.570Z,80.90
2018-04-13T10:26:36.071Z,79.40
2018-04-13T10:29:07.026Z,81.80
2018-04-13T10:31:36.378Z,83.90
2018-04-13T10:34:05.588Z,82.10
2018-04-13T10:36:34.000Z,81.70
2018-04-13T10:39:03.276Z,86.00
2018-04-13T10:41:31.706Z,86.00
2018-04-13T10:44:01.107Z,85.20
2018-04-13T10:46:30.259Z,84.30
2018-04-13T10:48:59.471Z,82.80
2018-04-13T10:51:33.363Z,82.00
2018-04-13T10:54:04.225Z,83.50
2018-04-13T10:56:33.253Z,81.90
2018-04-13T10:59:01.751Z,84.20
2018-04-13T11:01:35.068Z,85.90
2018-04-13T11:04:03.538Z,87.20
2018-04-13T11:06:31.991Z,86.60
2018-04-13T11:09:01.188Z,88.00
2018-04-13T11:11:30.475Z,89.20
2018-04-13T11:13:58.949Z,89.10
2018-04-13T11:16:27.428Z,90.20
2018-04-13T11:18:56.636Z,90.60
2018-04-13T11:21:25.131Z,90.60
2018-04-13T11:23:53.543Z,89.30
2018-04-13T11:26:27.432Z,90.20
2018-04-13T11:28:56.043Z,90.30
2018-04-13T11:31:24.618Z,90.70
2018-04-13T11:33:53.123Z,90.20
2018-04-13T11:36:21.510Z,89.70
2018-04-13T11:38:52.207Z,85.90
2018-04-13T11:41:20.775Z,86.00
2018-04-13T11:43:49.138Z,87.10
2018-04-13T11:46:19.255Z,87.70
2018-04-13T11:48:48.607Z,88.40
2018-04-13T11:51:17.030Z,88.50
2018-04-13T11:53:45.552Z,90.20
2018-04-13T11:56:14.056Z,90.30
2018-04-13T11:58:42.652Z,90.10
2018-04-13T12:01:14.240Z,90.60
2018-04-13T12:03:43.430Z,90.40
2018-04-13T12:06:11.847Z,90.40
2018-04-13T12:08:40.522Z,90.90
2018-04-13T12:11:09.692Z,89.30
2018-04-13T12:13:38.891Z,89.10
2018-04-13T12:16:07.330Z,89.20
2018-04-13T12:18:36.479Z,87.80
2018-04-13T12:21:04.901Z,87.80
2018-04-13T12:23:38.729Z,88.00
2018-04-13T12:26:07.752Z,89.30
2018-04-13T12:28:36.139Z,89.50
2018-04-13T12:31:04.562Z,89.20
2018-04-13T12:33:33.764Z,90.30
2018-04-13T12:36:02.217Z,90.30
2018-04-13T12:38:30.626Z,90.20
2018-04-13T12:40:59.024Z,90.80
2018-04-13T12:43:27.519Z,90.20
2018-04-13T12:45:56.695Z,91.80
2018-04-13T12:48:29.599Z,91.70
2018-04-13T12:50:58.037Z,91.50
2018-04-13T12:53:26.453Z,91.80
2018-04-13T12:55:54.898Z,92.10
2018-04-13T12:58:24.167Z,92.00
2018-04-13T13:00:52.628Z,92.00
2018-04-13T13:03:21.907Z,91.10
2018-04-13T13:05:50.451Z,91.10
2018-04-13T13:08:19.672Z,91.30
2018-04-13T13:10:53.470Z,91.30
2018-04-13T13:13:24.254Z,91.00
2018-04-13T13:15:52.680Z,91.40
2018-04-13T13:18:21.128Z,91.90
2018-04-13T13:20:50.373Z,90.60
2018-04-13T13:23:19.533Z,90.70
2018-04-13T13:25:48.002Z,90.70
2018-04-13T13:28:16.402Z,90.80
2018-04-13T13:30:44.829Z,90.00
2018-04-13T13:33:13.300Z,91.00
2018-04-13T13:35:46.302Z,89.70
2018-04-13T13:38:15.486Z,88.80
2018-04-13T13:40:43.931Z,88.60
2018-04-13T13:43:13.167Z,89.90
2018-04-13T13:45:41.676Z,90.00
2018-04-13T13:48:10.867Z,90.80
2018-04-13T13:50:39.306Z,90.80
2018-04-13T13:53:07.905Z,91.30
2018-04-13T13:55:36.351Z,91.30
2018-04-13T13:58:07.339Z,92.00
2018-04-13T14:00:35.793Z,91.70
2018-04-13T14:03:04.191Z,92.30
2018-04-13T14:05:32.748Z,92.50
2018-04-13T14:08:01.185Z,91.70
2018-04-13T14:10:30.428Z,91.30
2018-04-13T14:12:59.693Z,91.00
2018-04-13T14:15:28.127Z,90.90
2018-04-13T14:17:56.540Z,91.00
2018-04-13T14:20:26.296Z,91.40
2018-04-13T14:22:54.895Z,90.90
2018-04-13T14:25:24.057Z,91.00
2018-04-13T14:27:53.106Z,90.90
2018-04-13T14:30:21.765Z,90.70
2018-04-13T14:32:50.992Z,90.90
2018-04-13T14:35:19.614Z,90.80
2018-04-13T14:37:48.052Z,90.90
2018-04-13T14:40:17.248Z,91.50
2018-04-13T14:42:51.040Z,91.40
2018-04-13T14:45:29.117Z,90.30
2018-04-13T14:47:58.459Z,90.60
2018-04-13T14:50:26.906Z,90.70
2018-04-13T14:52:55.348Z,90.70
2018-04-13T14:55:24.653Z,90.70
2018-04-13T14:57:53.061Z,90.70
2018-04-13T15:00:22.357Z,90.90
2018-04-13T15:02:50.951Z,91.50
2018-04-13T15:05:19.448Z,92.00
2018-04-13T15:07:48.156Z,91.80
2018-04-13T15:10:16.822Z,91.10
2018-04-13T15:12:45.290Z,91.10
2018-04-13T15:15:13.922Z,91.40
2018-04-13T15:17:42.357Z,91.10
2018-04-13T15:20:11.739Z,91.30
2018-04-13T15:22:40.411Z,91.40
2018-04-13T15:25:08.998Z,91.50
2018-04-13T15:27:37.812Z,91.00
2018-04-13T15:30:06.254Z,91.60
2018-04-13T15:32:34.715Z,91.60
2018-04-13T15:35:03.242Z,90.90
2018-04-13T15:37:31.645Z,90.80
2018-04-13T15:40:00.340Z,91.70
2018-04-13T15:42:28.778Z,91.50
2018-04-13T15:44:58.029Z,91.10
2018-04-13T15:47:26.597Z,91.30
2018-04-13T15:50:01.156Z,91.40
2018-04-13T15:52:30.095Z,91.30
2018-04-13T15:54:58.508Z,91.10
2018-04-13T15:57:26.889Z,91.30
2018-04-13T15:59:55.349Z,91.10
2018-04-13T16:02:23.784Z,91.00
2018-04-13T16:04:52.229Z,90.40
2018-04-13T16:07:20.816Z,89.90
2018-04-13T16:09:49.298Z,89.70
2018-04-13T16:12:18.606Z,90.10
2018-04-13T16:14:53.272Z,90.20
2018-04-13T16:17:24.244Z,90.20
2018-04-13T16:19:52.799Z,89.80
2018-04-13T16:22:21.312Z,89.60
2018-04-13T16:24:49.752Z,88.30
2018-04-13T16:27:19.059Z,85.90
2018-04-13T16:29:48.280Z,86.00
2018-04-13T16:32:16.827Z,86.30
2018-04-13T16:34:45.283Z,85.40
2018-04-13T16:37:13.768Z,84.80
2018-04-13T16:39:47.532Z,84.20
2018-04-13T16:42:17.339Z,85.00
2018-04-13T16:44:45.800Z,84.70
2018-04-13T16:47:14.938Z,86.30
2018-04-13T16:49:43.488Z,86.20
2018-04-13T16:52:12.329Z,86.60
2018-04-13T16:54:40.849Z,84.30
2018-04-13T16:57:10.023Z,82.50
2018-04-13T16:59:38.590Z,82.40
2018-04-13T17:02:07.026Z,82.40
2018-04-13T17:04:36.812Z,83.70
2018-04-13T17:07:06.084Z,83.90
2018-04-13T17:09:34.671Z,83.90
2018-04-13T17:12:03.114Z,85.10
2018-04-13T17:14:32.462Z,85.20
2018-04-13T17:17:01.726Z,82.90
2018-04-13T17:19:30.899Z,83.50
2018-04-13T17:21:59.543Z,83.50
2018-04-13T17:24:27.994Z,83.20
2018-04-13T17:27:01.967Z,83.00
2018-04-13T17:29:30.527Z,82.40
2018-04-13T17:31:58.960Z,82.80
2018-04-13T17:34:27.566Z,82.00
2018-04-13T17:36:56.780Z,81.00
2018-04-13T17:39:25.277Z,81.00
2018-04-13T17:41:53.708Z,81.30
2018-04-13T17:44:22.109Z,79.00
2018-04-13T17:46:50.524Z,79.80
2018-04-13T17:49:19.105Z,79.80
2018-04-13T17:51:47.691Z,79.60
2018-04-13T17:54:16.905Z,80.80
2018-04-13T17:56:46.061Z,81.40
2018-04-13T17:59:16.241Z,81.30
2018-04-13T18:01:44.675Z,81.40
2018-04-13T18:04:13.184Z,82.00
2018-04-13T18:06:41.753Z,81.10
2018-04-13T18:09:10.144Z,81.90
2018-04-13T18:11:38.555Z,80.90
2018-04-13T18:14:12.337Z,81.80
2018-04-13T18:16:40.791Z,80.00
2018-04-13T18:19:09.382Z,79.80
2018-04-13T18:21:40.070Z,80.30
2018-04-13T18:24:08.490Z,80.10
2018-04-13T18:26:36.913Z,78.10
2018-04-13T18:29:06.245Z,80.10
2018-04-13T18:31:35.623Z,79.90
2018-04-13T18:34:04.811Z,79.30
2018-04-13T18:36:38.675Z,79.40
2018-04-13T18:39:07.109Z,81.50
2018-04-13T18:41:35.690Z,79.50
2018-04-13T18:44:04.158Z,80.00
2018-04-13T18:46:32.563Z,80.70
2018-04-13T18:49:01.049Z,80.50
2018-04-13T18:51:29.456Z,79.20
2018-04-13T18:53:58.676Z,78.80
2018-04-13T18:56:27.128Z,78.80
2018-04-13T18:59:01.268Z,79.20
2018-04-13T19:01:30.473Z,78.90
2018-04-13T19:03:58.979Z,79.00
2018-04-13T19:06:27.378Z,77.70
2018-04-13T19:08:56.556Z,79.00
2018-04-13T19:11:25.286Z,78.90
2018-04-13T19:13:54.581Z,80.20
2018-04-13T19:16:23.075Z,80.10
2018-04-13T19:18:51.511Z,79.50
2018-04-13T19:21:19.932Z,80.10
2018-04-13T19:23:48.418Z,80.90
2018-04-13T19:26:17.053Z,81.30
2018-04-13T19:28:45.749Z,81.60
2018-04-13T19:31:14.172Z,81.90
2018-04-13T19:33:44.216Z,82.10
2018-04-13T19:36:12.692Z,82.00
2018-04-13T19:38:41.194Z,83.80
2018-04-13T19:41:09.571Z,83.70
2018-04-13T19:43:43.306Z,83.40
2018-04-13T19:46:15.772Z,83.70
2018-04-13T19:48:44.224Z,83.80
2018-04-13T19:51:13.093Z,84.50
2018-04-13T19:53:41.529Z,84.30
2018-04-13T19:56:10.279Z,84.90
2018-04-13T19:58:39.506Z,85.30
2018-04-13T20:01:08.790Z,85.00
2018-04-13T20:03:39.149Z,85.00
2018-04-13T20:06:07.559Z,86.40
2018-04-13T20:08:42.283Z,86.40
2018-04-13T20:11:14.191Z,86.50
2018-04-13T20:13:43.414Z,87.70
2018-04-13T20:16:11.896Z,87.70
2018-04-13T20:18:41.123Z,88.60
2018-04-13T20:21:09.594Z,88.60
2018-04-13T20:23:38.945Z,88.50
2018-04-13T20:26:07.591Z,88.40
2018-04-13T20:28:35.999Z,88.50
2018-04-13T20:31:05.353Z,89.40
2018-04-13T20:33:36.293Z,89.40
2018-04-13T20:36:04.880Z,89.80
2018-04-13T20:38:34.046Z,90.70
2018-04-13T20:41:03.259Z,90.80
2018-04-13T20:43:31.846Z,90.80
2018-04-13T20:46:01.052Z,91.30
2018-04-13T20:48:29.440Z,91.30
2018-04-13T20:50:57.899Z,91.30
2018-04-13T20:53:26.318Z,91.30
2018-04-13T20:56:00.288Z,91.10
2018-04-13T20:58:34.097Z,91.60
2018-04-13T21:01:02.586Z,91.30
2018-04-13T21:03:31.175Z,91.70
2018-04-13T21:05:59.607Z,92.00
2018-04-13T21:08:28.041Z,92.00
2018-04-13T21:10:56.475Z,92.20
2018-04-13T21:13:25.959Z,92.70
2018-04-13T21:15:54.511Z,93.20
2018-04-13T21:18:22.974Z,92.80
2018-04-13T21:20:57.432Z,92.80
2018-04-13T21:23:25.852Z,92.80
2018-04-13T21:25:54.421Z,93.60
2018-04-13T21:28:22.843Z,93.60
2018-04-13T21:30:52.047Z,93.90
2018-04-13T21:33:21.211Z,94.10
2018-04-13T21:35:49.786Z,94.10
2018-04-13T21:38:18.189Z,93.90
2018-04-13T21:40:46.805Z,94.00
2018-04-13T21:43:15.190Z,94.00
2018-04-13T21:45:43.747Z,94.10
2018-04-13T21:48:12.998Z,94.80
2018-04-13T21:50:41.458Z,94.70
2018-04-13T21:53:09.848Z,94.70
2018-04-13T21:55:38.324Z,94.60
2018-04-13T21:58:07.352Z,94.50
2018-04-13T22:00:35.944Z,94.30
2018-04-13T22:03:04.353Z,94.40
2018-04-13T22:05:32.738Z,94.70
2018-04-13T22:08:02.001Z,95.10
2018-04-13T22:13:43.971Z,95.10
2018-04-13T22:16:12.394Z,95.10
2018-04-13T22:18:40.827Z,95.40
2018-04-13T22:21:09.208Z,95.70
2018-04-13T22:23:37.808Z,95.90
2018-04-13T22:26:08.870Z,95.70
2018-04-13T22:28:38.190Z,95.80
2018-04-13T22:31:06.619Z,96.00
2018-04-13T22:33:35.211Z,96.20
2018-04-13T22:38:37.960Z,96.50
2018-04-13T22:41:06.400Z,96.40
2018-04-13T22:43:34.965Z,96.40
2018-04-13T22:46:04.344Z,96.30
2018-04-13T22:48:32.815Z,96.30
2018-04-13T22:51:01.993Z,96.60
2018-04-13T22:53:30.403Z,96.60
2018-04-13T22:55:58.834Z,96.60
2018-04-13T22:58:27.248Z,96.60
2018-04-13T23:00:55.672Z,96.50
2018-04-13T23:03:24.118Z,96.40
2018-04-13T23:05:53.441Z,96.90
2018-04-13T23:08:21.959Z,96.90
2018-04-13T23:10:51.133Z,97.10
2018-04-13T23:13:21.158Z,97.30
2018-04-13T23:15:49.605Z,97.20
2018-04-13T23:18:18.829Z,97.70
2018-04-13T23:20:52.012Z,97.70
2018-04-13T23:23:20.424Z,98.00
2018-04-13T23:25:48.880Z,97.90
2018-04-13T23:28:18.219Z,97.90
2018-04-13T23:30:46.831Z,97.90
2018-04-13T23:33:15.209Z,98.20
2018-04-13T23:35:44.133Z,98.20
2018-04-13T23:38:12.535Z,98.00
2018-04-13T23:40:40.940Z,98.20
2018-04-13T23:43:09.451Z,98.30
2018-04-13T23:45:37.847Z,98.60
2018-04-13T23:48:11.633Z,98.80
2018-04-13T23:50:42.516Z,98.80
2018-04-13T23:53:10.918Z,98.80
2018-04-13T23:55:39.549Z,98.80
2018-04-13T23:58:08.111Z,98.80
